CFB Trenton
CYTR : now visible

Airfield :











YOU CAN JOIN US ON...

 
LOGIN :

Register | Disclaimer

   EN    FR    IT 

 









Legend :    VFR   Marginal VFR   IFR   Intensive IFR   Very Intensive IFR
Visi :
Ceiling :
>= 8 km
>= 3000ft
5 to 8 km
1000 to 3000 ft
1500m to 5 km
500 to 1000 ft
800 to 1500m
200 to 500 ft
< 800m
< 200 ft
Symbols :   Thunderstorms  Fog  Heavy snow  Heavy precipitations  Wind > 20 kt







- Airport Elevation : 283 ft
- IATA code : YTR


CYTR - CFB Trenton

CURRENT METAR :
  • 212100Z 24005KT 15SM FEW050 FEW200 25/15 A3013 RMK SC1CI2 SLP204

EXPIRED METARs :
  • 212000Z 22007KT 15SM FEW050 FEW200 25/15 A3014 RMK CF1CI2 CUFRA TR SLP206
  • 211900Z 22007KT 15SM FEW064 SCT220 25/16 A3016 RMK SC1CI4 SLP212

TAF TAF CYTR
Valid from the 21 at 18:00 until the 22 at 18:00 UTC


211730Z 2118/2218 22005KT P6SM FEW050 SCT200
TEMPO 2118/2121 BKN050
FM220300 VRB03KT P6SM FEW200
FM220800 21005KT P6SM FEW030 SCT200
FM221200 21008KT P6SM FEW040 BKN120 OVC200
BECMG 2216/2218 22012G22KT RMK NXT FCST BY 220000Z
No reported NOTAMs for that airfield.



MET'MAP, your aeronautical weather chart ! - Copyright ORBIFLY December 2007 - Disclaimer

ORBIFLY MET'MAP TEAM :

Programming & Development : Alexandra Zaïnal
Concept & Development : Baudouin d'Aumeries
Co-Development & Prog : Marc-Olivier Méhu
Technical & hardware support : Manuel Goepfert

Contact : metmap@orbifly.com




SOURCES & CREDITS :

   NOAA       Earth
Advisory